sensor_id;sensor_type;location;lat;lon;timestamp;temperature;humidity
62862;DHT22;48953;53.110;5.592;2022-08-21T00:01:51;12.50;99.90
62862;DHT22;48953;53.110;5.592;2022-08-21T00:04:17;12.50;99.90
62862;DHT22;48953;53.110;5.592;2022-08-21T00:06:43;12.60;99.90
62862;DHT22;48953;53.110;5.592;2022-08-21T00:09:09;12.30;99.90
62862;DHT22;48953;53.110;5.592;2022-08-21T00:11:36;12.50;99.90
62862;DHT22;48953;53.110;5.592;2022-08-21T00:14:04;12.60;99.90
62862;DHT22;48953;53.110;5.592;2022-08-21T00:16:31;12.40;99.90
62862;DHT22;48953;53.110;5.592;2022-08-21T00:18:56;12.50;99.90
62862;DHT22;48953;53.110;5.592;2022-08-21T00:21:22;12.40;99.90
62862;DHT22;48953;53.110;5.592;2022-08-21T00:23:47;12.40;99.90
62862;DHT22;48953;53.110;5.592;2022-08-21T00:26:13;12.50;99.90
62862;DHT22;48953;53.110;5.592;2022-08-21T00:28:39;12.50;99.90
62862;DHT22;48953;53.110;5.592;2022-08-21T00:31:04;12.40;99.90
62862;DHT22;48953;53.110;5.592;2022-08-21T00:33:31;12.30;99.90
62862;DHT22;48953;53.110;5.592;2022-08-21T00:35:57;12.30;99.90
62862;DHT22;48953;53.110;5.592;2022-08-21T00:38:22;12.30;99.90
62862;DHT22;48953;53.110;5.592;2022-08-21T00:40:54;12.40;99.90
62862;DHT22;48953;53.110;5.592;2022-08-21T00:43:24;12.50;99.90
62862;DHT22;48953;53.110;5.592;2022-08-21T00:45:51;12.40;99.90
62862;DHT22;48953;53.110;5.592;2022-08-21T00:48:18;12.30;99.90
62862;DHT22;48953;53.110;5.592;2022-08-21T00:50:48;12.30;99.90
62862;DHT22;48953;53.110;5.592;2022-08-21T00:53:15;12.40;99.90
62862;DHT22;48953;53.110;5.592;2022-08-21T00:55:41;12.40;99.90
62862;DHT22;48953;53.110;5.592;2022-08-21T00:58:10;12.50;99.90
62862;DHT22;48953;53.110;5.592;2022-08-21T01:00:39;12.40;99.90
62862;DHT22;48953;53.110;5.592;2022-08-21T01:03:13;12.50;99.90
62862;DHT22;48953;53.110;5.592;2022-08-21T01:05:40;12.70;99.90
62862;DHT22;48953;53.110;5.592;2022-08-21T01:08:07;12.60;99.90
62862;DHT22;48953;53.110;5.592;2022-08-21T01:10:34;12.50;99.90
62862;DHT22;48953;53.110;5.592;2022-08-21T01:13:01;12.60;99.90
62862;DHT22;48953;53.110;5.592;2022-08-21T01:15:31;12.60;99.90
62862;DHT22;48953;53.110;5.592;2022-08-21T01:17:58;12.50;99.90
62862;DHT22;48953;53.110;5.592;2022-08-21T01:20:23;12.50;99.90
62862;DHT22;48953;53.110;5.592;2022-08-21T01:22:49;12.50;99.90
62862;DHT22;48953;53.110;5.592;2022-08-21T01:25:16;12.40;99.90
62862;DHT22;48953;53.110;5.592;2022-08-21T01:27:43;12.50;99.90
62862;DHT22;48953;53.110;5.592;2022-08-21T01:30:27;12.60;99.90
62862;DHT22;48953;53.110;5.592;2022-08-21T01:32:54;12.50;99.90
62862;DHT22;48953;53.110;5.592;2022-08-21T01:35:21;12.60;99.90
62862;DHT22;48953;53.110;5.592;2022-08-21T01:37:48;12.60;99.90
62862;DHT22;48953;53.110;5.592;2022-08-21T01:40:16;12.50;99.90
62862;DHT22;48953;53.110;5.592;2022-08-21T01:42:43;12.60;99.90
62862;DHT22;48953;53.110;5.592;2022-08-21T01:45:10;12.60;99.90
62862;DHT22;48953;53.110;5.592;2022-08-21T01:47:36;12.50;99.90
62862;DHT22;48953;53.110;5.592;2022-08-21T01:50:04;12.40;99.90
62862;DHT22;48953;53.110;5.592;2022-08-21T01:52:31;12.40;99.90
62862;DHT22;48953;53.110;5.592;2022-08-21T01:54:56;12.50;99.90
62862;DHT22;48953;53.110;5.592;2022-08-21T01:57:23;12.50;99.90
62862;DHT22;48953;53.110;5.592;2022-08-21T01:59:48;12.60;99.90
62862;DHT22;48953;53.110;5.592;2022-08-21T02:02:14;12.50;99.90
62862;DHT22;48953;53.110;5.592;2022-08-21T02:04:40;12.60;99.90
62862;DHT22;48953;53.110;5.592;2022-08-21T02:07:05;12.60;99.90
62862;DHT22;48953;53.110;5.592;2022-08-21T02:09:32;12.60;99.90
62862;DHT22;48953;53.110;5.592;2022-08-21T02:11:57;12.80;99.90
62862;DHT22;48953;53.110;5.592;2022-08-21T02:14:23;12.70;99.90
62862;DHT22;48953;53.110;5.592;2022-08-21T02:16:49;12.80;99.90
62862;DHT22;48953;53.110;5.592;2022-08-21T02:19:16;12.70;99.90
62862;DHT22;48953;53.110;5.592;2022-08-21T02:21:41;12.70;99.90
62862;DHT22;48953;53.110;5.592;2022-08-21T02:24:08;12.60;99.90
62862;DHT22;48953;53.110;5.592;2022-08-21T02:26:34;12.60;99.90
62862;DHT22;48953;53.110;5.592;2022-08-21T02:29:00;12.60;99.90
62862;DHT22;48953;53.110;5.592;2022-08-21T02:31:26;12.60;99.90
62862;DHT22;48953;53.110;5.592;2022-08-21T02:33:52;12.70;99.90
62862;DHT22;48953;53.110;5.592;2022-08-21T02:36:18;12.70;99.90
62862;DHT22;48953;53.110;5.592;2022-08-21T02:38:44;12.80;99.90
62862;DHT22;48953;53.110;5.592;2022-08-21T02:41:16;12.50;99.90
62862;DHT22;48953;53.110;5.592;2022-08-21T02:43:42;12.60;99.90
62862;DHT22;48953;53.110;5.592;2022-08-21T02:46:09;12.50;99.90
62862;DHT22;48953;53.110;5.592;2022-08-21T02:48:36;12.50;99.90
62862;DHT22;48953;53.110;5.592;2022-08-21T02:51:20;12.50;99.90
62862;DHT22;48953;53.110;5.592;2022-08-21T02:53:47;12.60;99.90
62862;DHT22;48953;53.110;5.592;2022-08-21T02:56:14;12.50;99.90
62862;DHT22;48953;53.110;5.592;2022-08-21T02:58:44;12.50;99.90
62862;DHT22;48953;53.110;5.592;2022-08-21T03:01:10;12.50;99.90
62862;DHT22;48953;53.110;5.592;2022-08-21T03:03:39;12.50;99.90
62862;DHT22;48953;53.110;5.592;2022-08-21T03:06:06;12.70;99.90
62862;DHT22;48953;53.110;5.592;2022-08-21T03:08:31;12.60;99.90
62862;DHT22;48953;53.110;5.592;2022-08-21T03:10:57;12.60;99.90
62862;DHT22;48953;53.110;5.592;2022-08-21T03:13:25;12.50;99.90
62862;DHT22;48953;53.110;5.592;2022-08-21T03:15:50;12.50;99.90
62862;DHT22;48953;53.110;5.592;2022-08-21T03:18:16;12.40;99.90
62862;DHT22;48953;53.110;5.592;2022-08-21T03:20:43;12.40;99.90
62862;DHT22;48953;53.110;5.592;2022-08-21T03:23:10;12.40;99.90
62862;DHT22;48953;53.110;5.592;2022-08-21T03:25:37;12.40;99.90
62862;DHT22;48953;53.110;5.592;2022-08-21T03:28:05;12.40;99.90
62862;DHT22;48953;53.110;5.592;2022-08-21T03:30:31;12.50;99.90
62862;DHT22;48953;53.110;5.592;2022-08-21T03:33:00;12.40;99.90
62862;DHT22;48953;53.110;5.592;2022-08-21T03:35:27;12.50;99.90
62862;DHT22;48953;53.110;5.592;2022-08-21T03:37:53;12.50;99.90
62862;DHT22;48953;53.110;5.592;2022-08-21T03:40:21;12.50;99.90
62862;DHT22;48953;53.110;5.592;2022-08-21T03:42:47;12.60;99.90
62862;DHT22;48953;53.110;5.592;2022-08-21T03:45:14;12.60;99.90
62862;DHT22;48953;53.110;5.592;2022-08-21T03:47:51;12.60;99.90
62862;DHT22;48953;53.110;5.592;2022-08-21T03:50:17;12.70;99.90
62862;DHT22;48953;53.110;5.592;2022-08-21T03:52:43;12.80;99.90
62862;DHT22;48953;53.110;5.592;2022-08-21T03:55:08;12.70;99.90
62862;DHT22;48953;53.110;5.592;2022-08-21T03:57:34;12.70;99.90
62862;DHT22;48953;53.110;5.592;2022-08-21T03:59:59;12.70;99.90
62862;DHT22;48953;53.110;5.592;2022-08-21T04:02:25;12.80;99.90
62862;DHT22;48953;53.110;5.592;2022-08-21T04:04:50;12.90;99.90
62862;DHT22;48953;53.110;5.592;2022-08-21T04:07:16;12.90;99.90
62862;DHT22;48953;53.110;5.592;2022-08-21T04:09:43;13.10;99.90
62862;DHT22;48953;53.110;5.592;2022-08-21T04:12:09;13.00;99.90
62862;DHT22;48953;53.110;5.592;2022-08-21T04:14:35;13.10;99.90
62862;DHT22;48953;53.110;5.592;2022-08-21T04:17:00;13.00;99.90
62862;DHT22;48953;53.110;5.592;2022-08-21T04:19:26;13.20;99.90
62862;DHT22;48953;53.110;5.592;2022-08-21T04:21:52;13.10;99.90
62862;DHT22;48953;53.110;5.592;2022-08-21T04:24:17;13.20;99.90
62862;DHT22;48953;53.110;5.592;2022-08-21T04:26:44;13.10;99.90
62862;DHT22;48953;53.110;5.592;2022-08-21T04:29:10;13.30;99.90
62862;DHT22;48953;53.110;5.592;2022-08-21T04:31:36;13.60;99.90
62862;DHT22;48953;53.110;5.592;2022-08-21T04:34:03;13.40;99.90
62862;DHT22;48953;53.110;5.592;2022-08-21T04:36:30;13.40;99.90
62862;DHT22;48953;53.110;5.592;2022-08-21T04:38:56;13.50;99.90
62862;DHT22;48953;53.110;5.592;2022-08-21T04:41:22;13.30;99.90
62862;DHT22;48953;53.110;5.592;2022-08-21T04:43:47;13.40;99.90
62862;DHT22;48953;53.110;5.592;2022-08-21T04:46:13;13.40;99.90
62862;DHT22;48953;53.110;5.592;2022-08-21T04:48:38;13.40;99.90
62862;DHT22;48953;53.110;5.592;2022-08-21T04:51:17;13.50;99.90
62862;DHT22;48953;53.110;5.592;2022-08-21T04:53:48;13.60;99.90
62862;DHT22;48953;53.110;5.592;2022-08-21T04:56:25;13.50;99.90
62862;DHT22;48953;53.110;5.592;2022-08-21T04:58:53;13.60;99.90
62862;DHT22;48953;53.110;5.592;2022-08-21T05:01:23;13.80;99.90
62862;DHT22;48953;53.110;5.592;2022-08-21T05:03:52;13.70;99.90
62862;DHT22;48953;53.110;5.592;2022-08-21T05:06:20;13.90;99.90
62862;DHT22;48953;53.110;5.592;2022-08-21T05:08:48;14.00;99.90
62862;DHT22;48953;53.110;5.592;2022-08-21T05:11:14;14.10;99.90
62862;DHT22;48953;53.110;5.592;2022-08-21T05:13:39;14.20;99.90
62862;DHT22;48953;53.110;5.592;2022-08-21T05:16:07;14.40;99.90
62862;DHT22;48953;53.110;5.592;2022-08-21T05:18:32;14.50;99.90
62862;DHT22;48953;53.110;5.592;2022-08-21T05:20:58;14.50;99.90
62862;DHT22;48953;53.110;5.592;2022-08-21T05:23:24;14.60;99.90
62862;DHT22;48953;53.110;5.592;2022-08-21T05:25:51;14.80;99.90
62862;DHT22;48953;53.110;5.592;2022-08-21T05:28:17;14.90;99.90
62862;DHT22;48953;53.110;5.592;2022-08-21T05:30:43;15.20;99.90
62862;DHT22;48953;53.110;5.592;2022-08-21T05:33:08;15.20;99.90
62862;DHT22;48953;53.110;5.592;2022-08-21T05:35:34;15.40;99.90
62862;DHT22;48953;53.110;5.592;2022-08-21T05:38:00;15.80;99.90
62862;DHT22;48953;53.110;5.592;2022-08-21T05:40:26;18.00;99.90
62862;DHT22;48953;53.110;5.592;2022-08-21T05:42:53;20.30;1.00
62862;DHT22;48953;53.110;5.592;2022-08-21T05:45:19;22.10;99.90
62862;DHT22;48953;53.110;5.592;2022-08-21T05:47:44;23.50;99.90
62862;DHT22;48953;53.110;5.592;2022-08-21T05:50:10;24.10;99.90
62862;DHT22;48953;53.110;5.592;2022-08-21T05:52:36;24.40;99.90
62862;DHT22;48953;53.110;5.592;2022-08-21T05:55:01;24.80;99.90
62862;DHT22;48953;53.110;5.592;2022-08-21T05:57:27;24.90;99.90
62862;DHT22;48953;53.110;5.592;2022-08-21T05:59:53;24.50;99.90
62862;DHT22;48953;53.110;5.592;2022-08-21T06:02:19;22.40;99.90
62862;DHT22;48953;53.110;5.592;2022-08-21T06:04:45;21.30;99.90
62862;DHT22;48953;53.110;5.592;2022-08-21T06:07:11;20.80;99.90
62862;DHT22;48953;53.110;5.592;2022-08-21T06:09:37;20.30;99.90
62862;DHT22;48953;53.110;5.592;2022-08-21T06:12:08;20.30;99.90
62862;DHT22;48953;53.110;5.592;2022-08-21T06:14:35;20.10;99.90
62862;DHT22;48953;53.110;5.592;2022-08-21T06:17:05;20.10;99.90
62862;DHT22;48953;53.110;5.592;2022-08-21T06:19:31;20.10;99.90
62862;DHT22;48953;53.110;5.592;2022-08-21T06:21:57;20.00;99.90
62862;DHT22;48953;53.110;5.592;2022-08-21T06:24:23;20.00;99.90
62862;DHT22;48953;53.110;5.592;2022-08-21T06:26:49;20.10;99.90
62862;DHT22;48953;53.110;5.592;2022-08-21T06:29:14;20.20;99.90
62862;DHT22;48953;53.110;5.592;2022-08-21T06:31:43;20.40;99.90
62862;DHT22;48953;53.110;5.592;2022-08-21T06:34:09;20.70;99.90
62862;DHT22;48953;53.110;5.592;2022-08-21T06:36:34;20.50;99.90
62862;DHT22;48953;53.110;5.592;2022-08-21T06:39:00;21.20;99.90
62862;DHT22;48953;53.110;5.592;2022-08-21T06:41:26;25.20;99.90
62862;DHT22;48953;53.110;5.592;2022-08-21T06:43:53;27.70;99.90
62862;DHT22;48953;53.110;5.592;2022-08-21T06:46:19;30.00;99.90
62862;DHT22;48953;53.110;5.592;2022-08-21T06:48:44;30.80;99.90
62862;DHT22;48953;53.110;5.592;2022-08-21T06:51:10;31.80;99.90
62862;DHT22;48953;53.110;5.592;2022-08-21T06:53:35;33.00;99.90
62862;DHT22;48953;53.110;5.592;2022-08-21T06:56:01;33.40;99.90
62862;DHT22;48953;53.110;5.592;2022-08-21T06:58:27;34.80;99.90
62862;DHT22;48953;53.110;5.592;2022-08-21T07:00:52;35.20;99.90
62862;DHT22;48953;53.110;5.592;2022-08-21T07:03:20;36.70;99.90
62862;DHT22;48953;53.110;5.592;2022-08-21T07:05:46;36.70;99.90
62862;DHT22;48953;53.110;5.592;2022-08-21T07:08:11;37.80;99.90
62862;DHT22;48953;53.110;5.592;2022-08-21T07:10:37;38.20;99.90
62862;DHT22;48953;53.110;5.592;2022-08-21T07:13:02;37.60;99.90
62862;DHT22;48953;53.110;5.592;2022-08-21T07:15:29;38.90;99.90
62862;DHT22;48953;53.110;5.592;2022-08-21T07:17:54;39.30;99.90
62862;DHT22;48953;53.110;5.592;2022-08-21T07:20:22;39.30;99.90
62862;DHT22;48953;53.110;5.592;2022-08-21T07:22:48;39.00;99.90
62862;DHT22;48953;53.110;5.592;2022-08-21T07:25:13;37.50;99.90
62862;DHT22;48953;53.110;5.592;2022-08-21T07:27:39;38.10;99.90
62862;DHT22;48953;53.110;5.592;2022-08-21T07:30:05;39.40;99.90
62862;DHT22;48953;53.110;5.592;2022-08-21T07:32:31;39.80;99.90
62862;DHT22;48953;53.110;5.592;2022-08-21T07:34:57;40.90;99.90
62862;DHT22;48953;53.110;5.592;2022-08-21T07:37:22;40.50;99.90
62862;DHT22;48953;53.110;5.592;2022-08-21T07:39:48;40.40;99.90
62862;DHT22;48953;53.110;5.592;2022-08-21T07:42:15;39.10;99.90
62862;DHT22;48953;53.110;5.592;2022-08-21T07:44:40;40.10;99.90
62862;DHT22;48953;53.110;5.592;2022-08-21T07:47:06;39.50;99.90
62862;DHT22;48953;53.110;5.592;2022-08-21T07:49:31;36.50;99.90
62862;DHT22;48953;53.110;5.592;2022-08-21T07:51:57;36.10;99.90
62862;DHT22;48953;53.110;5.592;2022-08-21T07:54:23;39.40;99.90
62862;DHT22;48953;53.110;5.592;2022-08-21T07:56:48;39.80;99.90
62862;DHT22;48953;53.110;5.592;2022-08-21T07:59:14;41.30;99.60
62862;DHT22;48953;53.110;5.592;2022-08-21T08:01:39;42.10;98.20
62862;DHT22;48953;53.110;5.592;2022-08-21T08:04:05;42.00;95.40
62862;DHT22;48953;53.110;5.592;2022-08-21T08:06:31;42.70;93.60
62862;DHT22;48953;53.110;5.592;2022-08-21T08:08:57;42.90;92.50
62862;DHT22;48953;53.110;5.592;2022-08-21T08:11:22;42.50;91.60
62862;DHT22;48953;53.110;5.592;2022-08-21T08:13:50;41.80;91.30
62862;DHT22;48953;53.110;5.592;2022-08-21T08:16:17;42.80;90.10
62862;DHT22;48953;53.110;5.592;2022-08-21T08:18:43;43.80;86.00
62862;DHT22;48953;53.110;5.592;2022-08-21T08:21:10;41.70;82.20
62862;DHT22;48953;53.110;5.592;2022-08-21T08:23:37;43.70;83.60
62862;DHT22;48953;53.110;5.592;2022-08-21T08:26:02;44.40;79.60
62862;DHT22;48953;53.110;5.592;2022-08-21T08:28:28;44.20;74.20
62862;DHT22;48953;53.110;5.592;2022-08-21T08:30:54;43.80;74.60
62862;DHT22;48953;53.110;5.592;2022-08-21T08:33:21;44.30;71.00
62862;DHT22;48953;53.110;5.592;2022-08-21T08:35:48;42.80;69.40
62862;DHT22;48953;53.110;5.592;2022-08-21T08:38:15;43.50;71.40
62862;DHT22;48953;53.110;5.592;2022-08-21T08:43:29;42.40;66.70
62862;DHT22;48953;53.110;5.592;2022-08-21T08:45:57;41.60;70.40
62862;DHT22;48953;53.110;5.592;2022-08-21T08:48:59;40.80;69.90
62862;DHT22;48953;53.110;5.592;2022-08-21T08:51:48;44.40;68.90
62862;DHT22;48953;53.110;5.592;2022-08-21T08:54:26;44.00;61.60
62862;DHT22;48953;53.110;5.592;2022-08-21T08:56:58;45.10;61.40
62862;DHT22;48953;53.110;5.592;2022-08-21T08:59:52;45.30;59.30
62862;DHT22;48953;53.110;5.592;2022-08-21T09:02:18;41.10;55.80
62862;DHT22;48953;53.110;5.592;2022-08-21T09:04:46;43.10;56.00
62862;DHT22;48953;53.110;5.592;2022-08-21T09:07:25;42.10;58.60
62862;DHT22;48953;53.110;5.592;2022-08-21T09:15:43;41.10;56.00
62862;DHT22;48953;53.110;5.592;2022-08-21T09:27:12;44.70;53.60
62862;DHT22;48953;53.110;5.592;2022-08-21T09:29:40;45.60;51.20
62862;DHT22;48953;53.110;5.592;2022-08-21T09:32:23;44.60;45.50
62862;DHT22;48953;53.110;5.592;2022-08-21T09:35:00;40.60;47.10
62862;DHT22;48953;53.110;5.592;2022-08-21T09:37:32;43.00;48.30
62862;DHT22;48953;53.110;5.592;2022-08-21T09:39:59;43.60;45.80
62862;DHT22;48953;53.110;5.592;2022-08-21T09:42:30;45.70;42.20
62862;DHT22;48953;53.110;5.592;2022-08-21T09:45:12;46.50;41.20
62862;DHT22;48953;53.110;5.592;2022-08-21T09:47:40;46.10;40.10
62862;DHT22;48953;53.110;5.592;2022-08-21T09:50:16;44.30;36.90
62862;DHT22;48953;53.110;5.592;2022-08-21T09:52:45;43.90;39.20
62862;DHT22;48953;53.110;5.592;2022-08-21T09:55:30;45.60;36.70
62862;DHT22;48953;53.110;5.592;2022-08-21T09:58:15;40.00;36.50
62862;DHT22;48953;53.110;5.592;2022-08-21T10:00:42;38.10;42.80
62862;DHT22;48953;53.110;5.592;2022-08-21T10:03:20;35.10;44.00
62862;DHT22;48953;53.110;5.592;2022-08-21T10:05:57;33.80;47.90
62862;DHT22;48953;53.110;5.592;2022-08-21T10:08:26;32.80;51.80
62862;DHT22;48953;53.110;5.592;2022-08-21T10:11:17;32.10;55.20
62862;DHT22;48953;53.110;5.592;2022-08-21T10:13:53;34.20;59.30
62862;DHT22;48953;53.110;5.592;2022-08-21T10:19:30;39.60;51.70
62862;DHT22;48953;53.110;5.592;2022-08-21T10:25:16;41.60;48.10
62862;DHT22;48953;53.110;5.592;2022-08-21T10:33:18;41.70;43.90
62862;DHT22;48953;53.110;5.592;2022-08-21T10:36:02;40.30;42.00
62862;DHT22;48953;53.110;5.592;2022-08-21T10:44:30;38.20;40.00
62862;DHT22;48953;53.110;5.592;2022-08-21T10:50:28;41.90;43.00
62862;DHT22;48953;53.110;5.592;2022-08-21T10:55:55;40.80;38.70
62862;DHT22;48953;53.110;5.592;2022-08-21T10:58:28;41.10;39.50
62862;DHT22;48953;53.110;5.592;2022-08-21T11:01:12;38.60;38.00
62862;DHT22;48953;53.110;5.592;2022-08-21T11:03:45;37.70;41.20
62862;DHT22;48953;53.110;5.592;2022-08-21T11:06:21;35.80;40.60
62862;DHT22;48953;53.110;5.592;2022-08-21T11:08:58;35.30;44.10
62862;DHT22;48953;53.110;5.592;2022-08-21T11:11:36;33.80;45.40
62862;DHT22;48953;53.110;5.592;2022-08-21T11:14:25;33.00;47.90
62862;DHT22;48953;53.110;5.592;2022-08-21T11:17:07;32.30;50.90
62862;DHT22;48953;53.110;5.592;2022-08-21T11:19:35;31.80;52.50
62862;DHT22;48953;53.110;5.592;2022-08-21T11:22:17;31.40;53.70
62862;DHT22;48953;53.110;5.592;2022-08-21T11:27:33;31.00;58.00
62862;DHT22;48953;53.110;5.592;2022-08-21T11:30:03;30.70;59.30
62862;DHT22;48953;53.110;5.592;2022-08-21T11:35:31;30.80;60.40
62862;DHT22;48953;53.110;5.592;2022-08-21T11:46:00;29.20;64.60
62862;DHT22;48953;53.110;5.592;2022-08-21T11:51:14;29.70;67.50
62862;DHT22;48953;53.110;5.592;2022-08-21T11:56:21;28.70;69.70
62862;DHT22;48953;53.110;5.592;2022-08-21T11:58:53;28.90;69.10
62862;DHT22;48953;53.110;5.592;2022-08-21T12:01:25;28.80;69.90
62862;DHT22;48953;53.110;5.592;2022-08-21T12:04:07;28.50;70.70
62862;DHT22;48953;53.110;5.592;2022-08-21T12:06:36;28.30;72.00
62862;DHT22;48953;53.110;5.592;2022-08-21T12:12:03;29.70;73.60
62862;DHT22;48953;53.110;5.592;2022-08-21T12:14:48;29.40;72.40
62862;DHT22;48953;53.110;5.592;2022-08-21T12:17:22;29.50;72.00
62862;DHT22;48953;53.110;5.592;2022-08-21T12:20:00;29.30;71.40
62862;DHT22;48953;53.110;5.592;2022-08-21T12:22:40;29.20;72.00
62862;DHT22;48953;53.110;5.592;2022-08-21T12:25:10;29.20;71.80
62862;DHT22;48953;53.110;5.592;2022-08-21T12:27:51;29.00;72.10
62862;DHT22;48953;53.110;5.592;2022-08-21T12:33:00;28.70;71.20
62862;DHT22;48953;53.110;5.592;2022-08-21T12:35:41;29.30;73.70
62862;DHT22;48953;53.110;5.592;2022-08-21T12:38:28;29.10;72.80
62862;DHT22;48953;53.110;5.592;2022-08-21T12:41:06;29.10;73.30
62862;DHT22;48953;53.110;5.592;2022-08-21T12:43:38;29.00;74.60
62862;DHT22;48953;53.110;5.592;2022-08-21T12:46:06;29.50;74.70
62862;DHT22;48953;53.110;5.592;2022-08-21T12:48:58;29.60;75.10
62862;DHT22;48953;53.110;5.592;2022-08-21T12:51:45;29.40;75.50
62862;DHT22;48953;53.110;5.592;2022-08-21T12:54:23;29.30;76.50
62862;DHT22;48953;53.110;5.592;2022-08-21T12:57:00;29.20;76.20
62862;DHT22;48953;53.110;5.592;2022-08-21T12:59:27;28.50;78.30
62862;DHT22;48953;53.110;5.592;2022-08-21T13:01:54;28.20;76.10
62862;DHT22;48953;53.110;5.592;2022-08-21T13:04:36;28.10;75.10
62862;DHT22;48953;53.110;5.592;2022-08-21T13:07:07;28.30;76.70
62862;DHT22;48953;53.110;5.592;2022-08-21T13:09:42;28.30;76.60
62862;DHT22;48953;53.110;5.592;2022-08-21T13:12:09;28.30;75.00
62862;DHT22;48953;53.110;5.592;2022-08-21T13:14:39;28.30;77.10
62862;DHT22;48953;53.110;5.592;2022-08-21T13:17:06;28.30;77.00
62862;DHT22;48953;53.110;5.592;2022-08-21T13:19:33;28.40;78.30
62862;DHT22;48953;53.110;5.592;2022-08-21T13:21:59;27.80;76.80
62862;DHT22;48953;53.110;5.592;2022-08-21T13:24:28;27.80;76.60
62862;DHT22;48953;53.110;5.592;2022-08-21T13:26:55;27.80;78.00
62862;DHT22;48953;53.110;5.592;2022-08-21T13:29:27;27.70;77.40
62862;DHT22;48953;53.110;5.592;2022-08-21T13:31:56;28.10;78.70
62862;DHT22;48953;53.110;5.592;2022-08-21T13:34:24;28.30;79.90
62862;DHT22;48953;53.110;5.592;2022-08-21T13:36:54;28.30;79.10
62862;DHT22;48953;53.110;5.592;2022-08-21T13:39:21;28.00;80.90
62862;DHT22;48953;53.110;5.592;2022-08-21T13:41:49;28.10;79.50
62862;DHT22;48953;53.110;5.592;2022-08-21T13:44:21;28.00;79.20
62862;DHT22;48953;53.110;5.592;2022-08-21T13:46:51;28.20;80.10
62862;DHT22;48953;53.110;5.592;2022-08-21T13:49:23;27.90;83.20
62862;DHT22;48953;53.110;5.592;2022-08-21T13:51:51;27.40;80.80
62862;DHT22;48953;53.110;5.592;2022-08-21T13:54:43;28.00;80.80
62862;DHT22;48953;53.110;5.592;2022-08-21T13:57:26;28.30;79.70
62862;DHT22;48953;53.110;5.592;2022-08-21T13:59:51;27.70;79.70
62862;DHT22;48953;53.110;5.592;2022-08-21T14:02:23;27.40;80.80
62862;DHT22;48953;53.110;5.592;2022-08-21T14:04:57;27.60;81.90
62862;DHT22;48953;53.110;5.592;2022-08-21T14:07:36;27.50;82.50
62862;DHT22;48953;53.110;5.592;2022-08-21T14:10:06;27.20;87.70
62862;DHT22;48953;53.110;5.592;2022-08-21T14:12:42;27.10;89.70
62862;DHT22;48953;53.110;5.592;2022-08-21T14:15:09;27.30;91.00
62862;DHT22;48953;53.110;5.592;2022-08-21T14:17:39;27.10;90.90
62862;DHT22;48953;53.110;5.592;2022-08-21T14:20:09;27.20;91.40
62862;DHT22;48953;53.110;5.592;2022-08-21T14:22:41;27.00;91.80
62862;DHT22;48953;53.110;5.592;2022-08-21T14:25:13;26.70;91.80
62862;DHT22;48953;53.110;5.592;2022-08-21T14:27:52;26.00;91.90
62862;DHT22;48953;53.110;5.592;2022-08-21T14:32:46;25.90;93.30
62862;DHT22;48953;53.110;5.592;2022-08-21T14:35:13;26.10;93.90
62862;DHT22;48953;53.110;5.592;2022-08-21T14:37:43;26.30;94.20
62862;DHT22;48953;53.110;5.592;2022-08-21T14:40:09;26.00;94.30
62862;DHT22;48953;53.110;5.592;2022-08-21T14:42:35;25.90;94.90
62862;DHT22;48953;53.110;5.592;2022-08-21T14:45:15;25.60;95.20
62862;DHT22;48953;53.110;5.592;2022-08-21T14:47:42;25.50;95.90
62862;DHT22;48953;53.110;5.592;2022-08-21T14:50:12;25.50;96.40
62862;DHT22;48953;53.110;5.592;2022-08-21T14:52:39;25.50;96.90
62862;DHT22;48953;53.110;5.592;2022-08-21T14:55:06;25.40;97.30
62862;DHT22;48953;53.110;5.592;2022-08-21T14:57:32;25.30;98.40
62862;DHT22;48953;53.110;5.592;2022-08-21T14:59:58;25.20;99.30
62862;DHT22;48953;53.110;5.592;2022-08-21T15:02:25;25.10;99.40
62862;DHT22;48953;53.110;5.592;2022-08-21T15:04:51;24.90;99.90
62862;DHT22;48953;53.110;5.592;2022-08-21T15:07:16;24.60;99.90
62862;DHT22;48953;53.110;5.592;2022-08-21T15:09:42;24.50;99.90
62862;DHT22;48953;53.110;5.592;2022-08-21T15:12:07;24.80;99.90
62862;DHT22;48953;53.110;5.592;2022-08-21T15:14:36;24.50;99.90
62862;DHT22;48953;53.110;5.592;2022-08-21T15:17:05;24.50;99.90
62862;DHT22;48953;53.110;5.592;2022-08-21T15:19:31;24.40;99.90
62862;DHT22;48953;53.110;5.592;2022-08-21T15:21:57;24.30;99.90
62862;DHT22;48953;53.110;5.592;2022-08-21T15:24:23;24.20;99.90
62862;DHT22;48953;53.110;5.592;2022-08-21T15:26:49;24.50;99.90
62862;DHT22;48953;53.110;5.592;2022-08-21T15:29:15;24.50;99.90
62862;DHT22;48953;53.110;5.592;2022-08-21T15:32:21;24.30;99.90
62862;DHT22;48953;53.110;5.592;2022-08-21T15:34:49;24.30;99.90
62862;DHT22;48953;53.110;5.592;2022-08-21T15:37:15;24.20;99.90
62862;DHT22;48953;53.110;5.592;2022-08-21T15:39:40;24.20;99.90
62862;DHT22;48953;53.110;5.592;2022-08-21T15:42:06;24.00;99.90
62862;DHT22;48953;53.110;5.592;2022-08-21T15:44:32;23.70;99.90
62862;DHT22;48953;53.110;5.592;2022-08-21T15:46:59;23.70;99.90
62862;DHT22;48953;53.110;5.592;2022-08-21T15:49:25;23.80;99.90
62862;DHT22;48953;53.110;5.592;2022-08-21T15:51:50;23.60;99.90
62862;DHT22;48953;53.110;5.592;2022-08-21T15:54:16;23.70;99.90
62862;DHT22;48953;53.110;5.592;2022-08-21T15:56:44;23.60;99.90
62862;DHT22;48953;53.110;5.592;2022-08-21T15:59:17;23.50;99.90
62862;DHT22;48953;53.110;5.592;2022-08-21T16:01:44;23.40;99.90
62862;DHT22;48953;53.110;5.592;2022-08-21T16:04:10;23.30;99.90
62862;DHT22;48953;53.110;5.592;2022-08-21T16:06:38;23.10;99.90
62862;DHT22;48953;53.110;5.592;2022-08-21T16:09:03;23.00;99.90
62862;DHT22;48953;53.110;5.592;2022-08-21T16:11:29;22.90;99.90
62862;DHT22;48953;53.110;5.592;2022-08-21T16:13:55;22.90;99.90
62862;DHT22;48953;53.110;5.592;2022-08-21T16:16:22;22.90;99.90
62862;DHT22;48953;53.110;5.592;2022-08-21T16:18:49;23.10;99.90
62862;DHT22;48953;53.110;5.592;2022-08-21T16:21:16;23.00;99.90
62862;DHT22;48953;53.110;5.592;2022-08-21T16:23:42;22.90;99.90
62862;DHT22;48953;53.110;5.592;2022-08-21T16:26:09;22.90;99.90
62862;DHT22;48953;53.110;5.592;2022-08-21T16:28:37;22.70;99.90
62862;DHT22;48953;53.110;5.592;2022-08-21T16:31:04;22.60;99.90
62862;DHT22;48953;53.110;5.592;2022-08-21T16:33:42;22.60;99.90
62862;DHT22;48953;53.110;5.592;2022-08-21T16:36:09;22.60;99.90
62862;DHT22;48953;53.110;5.592;2022-08-21T16:38:36;22.50;99.90
62862;DHT22;48953;53.110;5.592;2022-08-21T16:41:06;22.50;99.90
62862;DHT22;48953;53.110;5.592;2022-08-21T16:43:33;22.60;99.90
62862;DHT22;48953;53.110;5.592;2022-08-21T16:45:59;22.60;99.90
62862;DHT22;48953;53.110;5.592;2022-08-21T16:48:26;22.50;99.90
62862;DHT22;48953;53.110;5.592;2022-08-21T16:50:54;22.50;99.90